createdAt,value
2018-07-23T00:01:33.854Z,101237.27
2018-07-23T00:04:02.018Z,101236.78
2018-07-23T00:06:30.381Z,101235.31
2018-07-23T00:08:58.773Z,101235.21
2018-07-23T00:11:28.127Z,101231.16
2018-07-23T00:13:56.509Z,101231.44
2018-07-23T00:16:24.877Z,101233.40
2018-07-23T00:18:53.243Z,101228.38
2018-07-23T00:21:21.615Z,101227.50
2018-07-23T00:23:49.986Z,101228.19
2018-07-23T00:26:18.353Z,101228.03
2018-07-23T00:28:46.731Z,101230.19
2018-07-23T00:31:15.098Z,101227.64
2018-07-23T00:33:43.469Z,101224.50
2018-07-23T00:36:11.845Z,101227.11
2018-07-23T00:38:40.230Z,101221.44
2018-07-23T00:41:08.581Z,101220.19
2018-07-23T00:43:36.950Z,101222.49
2018-07-23T00:46:05.322Z,101218.23
2018-07-23T00:48:33.685Z,101222.70
2018-07-23T00:51:02.057Z,101222.89
2018-07-23T00:53:30.421Z,101221.25
2018-07-23T00:55:58.795Z,101227.06
2018-07-23T00:58:27.171Z,101229.36
2018-07-23T01:00:55.551Z,101226.98
2018-07-23T01:03:24.036Z,101221.67
2018-07-23T01:05:52.409Z,101223.78
2018-07-23T01:08:20.791Z,101223.48
2018-07-23T01:10:49.147Z,101223.50
2018-07-23T01:13:17.740Z,101225.58
2018-07-23T01:15:45.877Z,101223.17
2018-07-23T01:18:14.242Z,101221.96
2018-07-23T01:20:42.618Z,101225.45
2018-07-23T01:23:10.976Z,101230.97
2018-07-23T01:25:39.342Z,101227.30
2018-07-23T01:28:07.706Z,101230.03
2018-07-23T01:30:36.077Z,101234.88
2018-07-23T01:33:04.456Z,101236.80
2018-07-23T01:35:32.815Z,101234.44
2018-07-23T01:38:01.182Z,101230.76
2018-07-23T01:40:29.542Z,101229.56
2018-07-23T01:42:57.921Z,101230.86
2018-07-23T01:45:26.593Z,101231.36
2018-07-23T01:47:54.957Z,101227.37
2018-07-23T01:50:23.322Z,101223.80
2018-07-23T01:52:51.686Z,101224.17
2018-07-23T01:55:20.055Z,101228.52
2018-07-23T01:57:48.426Z,101225.63
2018-07-23T02:00:16.786Z,101225.61
2018-07-23T02:02:45.176Z,101227.80
2018-07-23T02:05:13.569Z,101232.67
2018-07-23T02:07:41.936Z,101234.73
2018-07-23T02:10:10.310Z,101238.13
2018-07-23T02:12:38.686Z,101237.77
2018-07-23T02:15:07.075Z,101235.91
2018-07-23T02:17:35.435Z,101234.64
2018-07-23T02:20:04.464Z,101235.70
2018-07-23T02:22:32.824Z,101236.91
2018-07-23T02:25:01.182Z,101236.64
2018-07-23T02:27:29.557Z,101236.03
2018-07-23T02:29:57.917Z,101231.97
2018-07-23T02:32:26.296Z,101236.22
2018-07-23T02:34:54.656Z,101235.92
2018-07-23T02:37:23.121Z,101233.91
2018-07-23T02:39:51.388Z,101234.47
2018-07-23T02:42:19.981Z,101238.72
2018-07-23T02:44:48.338Z,101240.55
2018-07-23T02:47:16.708Z,101236.20
2018-07-23T02:49:45.080Z,101239.92
2018-07-23T02:52:13.446Z,101242.33
2018-07-23T02:54:42.698Z,101248.72
2018-07-23T02:57:11.070Z,101248.03
2018-07-23T02:59:39.453Z,101250.25
2018-07-23T03:02:07.815Z,101245.64
2018-07-23T03:04:36.176Z,101246.10
2018-07-23T03:07:04.575Z,101245.23
2018-07-23T03:09:32.944Z,101242.80
2018-07-23T03:12:01.312Z,101242.64
2018-07-23T03:14:31.650Z,101241.86
2018-07-23T03:17:00.035Z,101242.41
2018-07-23T03:19:28.406Z,101238.78
2018-07-23T03:21:56.829Z,101241.05
2018-07-23T03:24:25.169Z,101244.02
2018-07-23T03:26:53.510Z,101244.01
2018-07-23T03:29:22.104Z,101243.00
2018-07-23T03:31:50.240Z,101233.89
2018-07-23T03:34:18.608Z,101237.23
2018-07-23T03:36:46.991Z,101242.55
2018-07-23T03:39:15.364Z,101244.67
2018-07-23T03:41:43.736Z,101245.08
2018-07-23T03:50:09.513Z,101246.98
2018-07-23T03:52:37.907Z,101253.15
2018-07-23T03:55:06.290Z,101252.54
2018-07-23T03:57:34.680Z,101255.75
2018-07-23T04:00:03.052Z,101262.55
2018-07-23T04:02:31.444Z,101259.16
2018-07-23T04:04:59.837Z,101262.42
2018-07-23T04:07:28.245Z,101263.66
2018-07-23T04:09:56.626Z,101263.68
2018-07-23T04:12:25.004Z,101266.61
2018-07-23T04:14:53.416Z,101270.63
2018-07-23T04:17:21.810Z,101274.52
2018-07-23T04:19:50.178Z,101273.66
2018-07-23T04:22:18.555Z,101273.70
2018-07-23T04:24:46.933Z,101276.23
2018-07-23T04:27:15.339Z,101269.73
2018-07-23T04:29:43.685Z,101270.86
2018-07-23T04:32:12.152Z,101273.13
2018-07-23T04:34:40.522Z,101271.23
2018-07-23T04:37:08.885Z,101270.08
2018-07-23T04:39:37.254Z,101276.69
2018-07-23T04:42:05.643Z,101278.57
2018-07-23T04:44:34.012Z,101274.01
2018-07-23T04:47:02.395Z,101280.50
2018-07-23T04:49:30.776Z,101280.20
2018-07-23T04:51:59.156Z,101278.55
2018-07-23T04:54:27.522Z,101277.65
2018-07-23T04:56:55.936Z,101279.22
2018-07-23T04:59:24.296Z,101279.76
2018-07-23T05:01:52.668Z,101276.48
2018-07-23T05:04:21.053Z,101274.90
2018-07-23T05:06:49.415Z,101275.27
2018-07-23T05:09:17.851Z,101275.00
2018-07-23T05:11:46.283Z,101273.05
2018-07-23T05:14:14.677Z,101273.31
2018-07-23T05:16:43.066Z,101274.70
2018-07-23T05:19:11.667Z,101276.47
2018-07-23T05:24:29.084Z,101281.61
2018-07-23T05:26:57.430Z,101279.98
2018-07-23T05:29:25.815Z,101279.65
2018-07-23T05:31:54.232Z,101279.12
2018-07-23T05:34:22.580Z,101277.28
2018-07-23T05:42:42.074Z,101286.31
2018-07-23T05:45:06.421Z,101285.41
2018-07-23T05:47:34.797Z,101289.00
2018-07-23T05:50:03.200Z,101291.30
2018-07-23T05:52:31.598Z,101294.18
2018-07-23T05:54:59.993Z,101297.80
2018-07-23T05:57:28.412Z,101293.23
2018-07-23T05:59:56.806Z,101292.87
2018-07-23T06:02:25.986Z,101299.34
2018-07-23T06:04:54.376Z,101296.51
2018-07-23T06:07:22.792Z,101300.91
2018-07-23T06:09:51.252Z,101301.12
2018-07-23T06:12:19.638Z,101302.38
2018-07-23T06:14:48.239Z,101297.58
2018-07-23T06:17:17.196Z,101297.85
2018-07-23T06:19:45.948Z,101296.95
2018-07-23T06:22:14.865Z,101298.33
2018-07-23T06:24:43.314Z,101301.94
2018-07-23T06:27:11.972Z,101300.30
2018-07-23T06:29:40.347Z,101299.23
2018-07-23T06:32:08.776Z,101300.78
2018-07-23T06:34:37.121Z,101302.53
2018-07-23T06:37:05.496Z,101303.05
2018-07-23T06:39:33.870Z,101309.30
2018-07-23T06:42:11.195Z,101300.84
2018-07-23T06:44:35.883Z,101299.42
2018-07-23T06:47:04.268Z,101303.28
2018-07-23T06:49:32.650Z,101296.95
2018-07-23T06:52:01.026Z,101295.39
2018-07-23T06:54:29.404Z,101298.00
2018-07-23T06:56:58.067Z,101298.90
2018-07-23T06:59:26.165Z,101299.49
2018-07-23T07:01:54.542Z,101299.13
2018-07-23T07:04:28.080Z,101298.20
2018-07-23T07:06:56.481Z,101294.61
2018-07-23T07:09:25.782Z,101299.66
2018-07-23T07:11:53.408Z,101298.14
2018-07-23T07:14:21.803Z,101298.05
2018-07-23T07:16:50.171Z,101305.05
2018-07-23T07:19:18.553Z,101303.41
2018-07-23T07:21:46.934Z,101302.66
2018-07-23T07:24:15.366Z,101304.65
2018-07-23T07:26:43.693Z,101304.70
2018-07-23T07:29:12.084Z,101304.67
2018-07-23T07:31:41.175Z,101309.62
2018-07-23T07:34:09.541Z,101311.60
2018-07-23T07:36:37.913Z,101309.36
2018-07-23T07:39:10.548Z,101312.48
2018-07-23T07:41:36.261Z,101309.19
2018-07-23T07:44:04.625Z,101308.09
2018-07-23T07:46:33.059Z,101311.06
2018-07-23T07:49:01.376Z,101313.42
2018-07-23T07:51:29.742Z,101311.02
2018-07-23T07:53:58.139Z,101315.06
2018-07-23T07:56:26.523Z,101311.17
2018-07-23T07:58:54.902Z,101311.50
2018-07-23T08:01:23.270Z,101314.55
2018-07-23T08:03:51.638Z,101315.48
2018-07-23T08:06:20.016Z,101312.23
2018-07-23T08:08:48.738Z,101312.34
2018-07-23T08:11:17.123Z,101314.73
2018-07-23T08:13:45.519Z,101316.61
2018-07-23T08:16:13.887Z,101323.94
2018-07-23T08:18:42.242Z,101319.92
2018-07-23T08:21:10.608Z,101322.23
2018-07-23T08:23:38.978Z,101320.72
2018-07-23T08:26:07.340Z,101315.99
2018-07-23T08:28:35.702Z,101309.02
2018-07-23T08:31:04.071Z,101309.91
2018-07-23T08:33:32.447Z,101310.73
2018-07-23T08:36:00.806Z,101314.97
2018-07-23T08:38:29.260Z,101310.53
2018-07-23T08:40:57.585Z,101311.51
2018-07-23T08:43:25.960Z,101310.94
2018-07-23T08:45:54.344Z,101315.34
2018-07-23T08:48:22.722Z,101313.01
2018-07-23T08:50:51.099Z,101318.83
2018-07-23T08:53:19.464Z,101319.81
2018-07-23T08:55:47.833Z,101322.05
2018-07-23T08:58:16.480Z,101324.69
2018-07-23T09:00:44.868Z,101318.36
2018-07-23T09:03:13.464Z,101317.56
2018-07-23T09:05:41.599Z,101318.86
2018-07-23T09:08:09.969Z,101320.88
2018-07-23T09:10:38.338Z,101319.03
2018-07-23T09:13:06.709Z,101314.63
2018-07-23T09:15:35.122Z,101323.41
2018-07-23T09:18:03.514Z,101327.02
2018-07-23T09:20:32.189Z,101329.23
2018-07-23T09:23:03.987Z,101322.39
2018-07-23T09:25:32.383Z,101324.20
2018-07-23T09:28:00.761Z,101324.34
2018-07-23T09:30:29.426Z,101321.50
2018-07-23T09:32:57.787Z,101322.39
2018-07-23T09:35:26.150Z,101320.03
2018-07-23T09:37:54.521Z,101324.16
2018-07-23T09:40:22.900Z,101321.66
2018-07-23T09:42:51.255Z,101315.10
2018-07-23T09:45:21.705Z,101316.58
2018-07-23T09:47:49.746Z,101311.08
2018-07-23T09:50:18.127Z,101308.17
2018-07-23T09:52:46.836Z,101310.37
2018-07-23T09:55:15.207Z,101312.80
2018-07-23T09:57:43.568Z,101311.70
2018-07-23T10:00:12.170Z,101309.67
2018-07-23T10:02:41.113Z,101303.47
2018-07-23T10:05:09.480Z,101301.86
2018-07-23T10:07:37.867Z,101297.67
2018-07-23T10:10:06.518Z,101294.97
2018-07-23T10:12:34.881Z,101292.67
2018-07-23T10:15:03.245Z,101298.80
2018-07-23T10:17:31.645Z,101287.36
2018-07-23T10:20:01.026Z,101293.48
2018-07-23T10:22:28.644Z,101290.47
2018-07-23T10:24:57.002Z,101284.91
2018-07-23T10:27:25.767Z,101285.57
2018-07-23T10:29:54.153Z,101283.38
2018-07-23T10:32:22.521Z,101284.67
2018-07-23T10:34:50.883Z,101277.80
2018-07-23T10:37:19.248Z,101280.39
2018-07-23T10:39:47.617Z,101276.20
2018-07-23T10:42:15.973Z,101270.63
2018-07-23T10:44:44.330Z,101274.52
2018-07-23T10:47:12.701Z,101268.77
2018-07-23T10:49:41.070Z,101275.68
2018-07-23T10:52:09.429Z,101273.84
2018-07-23T10:54:37.915Z,101275.27
2018-07-23T10:57:06.279Z,101269.83
2018-07-23T10:59:54.071Z,101271.15
2018-07-23T11:02:22.421Z,101276.52
2018-07-23T11:04:51.138Z,101272.11
2018-07-23T11:07:19.583Z,101269.83
2018-07-23T11:09:47.909Z,101267.37
2018-07-23T11:12:16.293Z,101273.13
2018-07-23T11:14:44.657Z,101271.22
2018-07-23T11:17:13.012Z,101267.19
2018-07-23T11:19:41.504Z,101267.63
2018-07-23T11:22:09.857Z,101270.64
2018-07-23T11:24:45.352Z,101264.98
2018-07-23T11:27:06.589Z,101268.25
2018-07-23T11:29:35.516Z,101266.34
2018-07-23T11:32:03.876Z,101268.69
2018-07-23T11:34:32.190Z,101266.83
2018-07-23T11:37:01.774Z,101267.86
2018-07-23T11:39:31.372Z,101269.25
2018-07-23T11:41:59.701Z,101268.92
2018-07-23T11:44:28.068Z,101267.69
2018-07-23T11:46:56.436Z,101264.78
2018-07-23T11:49:24.797Z,101264.44
2018-07-23T11:51:53.154Z,101262.97
2018-07-23T11:54:21.534Z,101268.91
2018-07-23T11:56:49.929Z,101271.78
2018-07-23T11:59:18.280Z,101269.69
2018-07-23T12:01:46.673Z,101271.56
2018-07-23T12:04:15.069Z,101271.39
2018-07-23T12:06:43.415Z,101271.59
2018-07-23T12:09:17.142Z,101274.17
2018-07-23T12:11:41.406Z,101271.03
2018-07-23T12:14:11.750Z,101268.14
2018-07-23T12:16:40.524Z,101268.67
2018-07-23T12:19:08.905Z,101267.98
2018-07-23T12:21:37.317Z,101264.05
2018-07-23T12:24:05.684Z,101266.08
2018-07-23T12:26:34.962Z,101262.91
2018-07-23T12:29:03.338Z,101261.52
2018-07-23T12:31:31.724Z,101266.67
2018-07-23T12:34:00.096Z,101262.13
2018-07-23T12:36:28.671Z,101260.66
2018-07-23T12:38:57.041Z,101253.23
2018-07-23T12:41:25.410Z,101254.36
2018-07-23T12:43:53.779Z,101253.57
2018-07-23T12:46:22.155Z,101247.02
2018-07-23T12:48:50.520Z,101248.58
2018-07-23T12:51:18.918Z,101248.02
2018-07-23T12:53:47.267Z,101248.05
2018-07-23T12:56:15.635Z,101250.98
2018-07-23T12:58:44.325Z,101247.14
2018-07-23T13:01:12.689Z,101253.80
2018-07-23T13:03:41.049Z,101252.69
2018-07-23T13:06:09.415Z,101256.23
2018-07-23T13:08:37.783Z,101254.78
2018-07-23T13:11:06.148Z,101249.17
2018-07-23T13:13:34.512Z,101248.65
2018-07-23T13:16:02.886Z,101247.47
2018-07-23T13:18:31.252Z,101250.92
2018-07-23T13:20:59.611Z,101247.97
2018-07-23T13:23:28.047Z,101253.61
2018-07-23T13:25:56.435Z,101251.39
2018-07-23T13:28:24.791Z,101252.13
2018-07-23T13:30:53.505Z,101254.53
2018-07-23T13:33:21.870Z,101255.63
2018-07-23T13:35:50.236Z,101254.94
2018-07-23T13:38:18.659Z,101260.34
2018-07-23T13:40:46.964Z,101255.54
2018-07-23T13:43:15.337Z,101261.16
2018-07-23T13:45:43.704Z,101254.09
2018-07-23T13:48:12.064Z,101260.42
2018-07-23T13:50:40.678Z,101265.29
2018-07-23T13:53:09.039Z,101269.67
2018-07-23T13:55:37.411Z,101266.53
2018-07-23T13:58:05.771Z,101266.81
2018-07-23T14:00:35.103Z,101266.18
2018-07-23T14:03:03.705Z,101269.47
2018-07-23T14:05:31.849Z,101271.52
2018-07-23T14:08:00.218Z,101271.80
2018-07-23T14:10:28.915Z,101269.96
2018-07-23T14:12:57.284Z,101271.17
2018-07-23T14:15:25.648Z,101272.59
2018-07-23T14:17:54.012Z,101272.33
2018-07-23T14:20:22.662Z,101269.19
2018-07-23T14:22:50.785Z,101271.16
2018-07-23T14:25:22.282Z,101267.22
2018-07-23T14:27:51.574Z,101267.22
2018-07-23T14:30:19.952Z,101263.22
2018-07-23T14:32:48.301Z,101260.75
2018-07-23T14:35:16.723Z,101262.95
2018-07-23T14:37:45.884Z,101256.59
2018-07-23T14:40:14.247Z,101263.63
2018-07-23T14:42:42.612Z,101266.26
2018-07-23T14:45:11.048Z,101262.31
2018-07-23T14:47:39.410Z,101267.38
2018-07-23T14:50:07.795Z,101269.81
2018-07-23T14:52:36.157Z,101267.77
2018-07-23T14:55:04.516Z,101269.23
2018-07-23T14:57:32.887Z,101270.22
2018-07-23T15:00:01.253Z,101267.27
2018-07-23T15:02:29.619Z,101269.56
2018-07-23T15:05:09.039Z,101270.87
2018-07-23T15:07:27.532Z,101276.90
2018-07-23T15:09:55.892Z,101274.19
2018-07-23T15:12:24.254Z,101274.66
2018-07-23T15:14:53.387Z,101273.30
2018-07-23T15:17:21.747Z,101276.52
2018-07-23T15:19:50.125Z,101276.77
2018-07-23T15:22:18.495Z,101279.53
2018-07-23T15:24:47.188Z,101280.77
2018-07-23T15:27:15.594Z,101281.17
2018-07-23T15:29:43.961Z,101276.95
2018-07-23T15:32:12.551Z,101275.28
2018-07-23T15:34:40.912Z,101275.62
2018-07-23T15:37:09.282Z,101278.77
2018-07-23T15:39:37.645Z,101277.77
2018-07-23T15:42:06.002Z,101284.00
2018-07-23T15:44:34.512Z,101285.55
2018-07-23T15:47:02.727Z,101285.88
2018-07-23T15:49:31.088Z,101287.02
2018-07-23T15:51:59.455Z,101288.01
2018-07-23T15:54:27.818Z,101287.36
2018-07-23T15:56:56.519Z,101292.82
2018-07-23T15:59:24.878Z,101296.41
2018-07-23T16:01:53.237Z,101302.30
2018-07-23T16:04:21.602Z,101303.53
2018-07-23T16:06:49.951Z,101301.52
2018-07-23T16:09:18.337Z,101304.01
2018-07-23T16:11:46.682Z,101303.82
2018-07-23T16:14:15.051Z,101305.69
2018-07-23T16:16:43.647Z,101303.54
2018-07-23T16:19:11.770Z,101299.64
2018-07-23T16:21:40.126Z,101302.97
2018-07-23T16:24:08.477Z,101302.64
2018-07-23T16:26:36.837Z,101305.74
2018-07-23T16:29:05.232Z,101302.02
2018-07-23T16:31:33.597Z,101306.53
2018-07-23T16:34:01.961Z,101302.53
2018-07-23T16:36:30.318Z,101305.55
2018-07-23T16:38:58.675Z,101306.20
2018-07-23T16:41:27.031Z,101306.27
2018-07-23T16:43:55.395Z,101310.41
2018-07-23T16:46:23.819Z,101312.24
2018-07-23T16:48:52.110Z,101313.52
2018-07-23T16:51:20.477Z,101311.11
2018-07-23T16:53:48.865Z,101313.33
2018-07-23T16:56:17.224Z,101303.80
2018-07-23T16:58:45.671Z,101313.12
2018-07-23T17:01:14.170Z,101312.39
2018-07-23T17:03:42.524Z,101304.27
2018-07-23T17:06:10.914Z,101304.48
2018-07-23T17:08:39.279Z,101308.22
2018-07-23T17:11:07.661Z,101305.94
2018-07-23T17:13:36.029Z,101302.94
2018-07-23T17:16:04.391Z,101309.79
2018-07-23T17:18:32.745Z,101311.63
2018-07-23T17:21:01.107Z,101315.20
2018-07-23T17:23:29.473Z,101315.29
2018-07-23T17:25:57.836Z,101316.23
2018-07-23T17:28:26.222Z,101314.94
2018-07-23T17:30:54.680Z,101317.30
2018-07-23T17:33:23.051Z,101317.22
2018-07-23T17:35:51.415Z,101315.88
2018-07-23T17:38:19.791Z,101322.00
2018-07-23T17:40:48.155Z,101321.23
2018-07-23T17:43:16.521Z,101319.89
2018-07-23T17:45:44.921Z,101319.76
2018-07-23T17:48:13.282Z,101320.61
2018-07-23T17:50:47.418Z,101319.69
2018-07-23T17:53:20.488Z,101321.81
2018-07-23T17:55:48.873Z,101322.65
2018-07-23T17:58:17.254Z,101325.19
2018-07-23T18:00:45.640Z,101324.09
2018-07-23T18:03:14.011Z,101326.41
2018-07-23T18:05:42.424Z,101325.98
2018-07-23T18:08:10.870Z,101313.52
2018-07-23T18:10:39.286Z,101324.61
2018-07-23T18:13:07.621Z,101321.30
2018-07-23T18:15:36.084Z,101319.61
2018-07-23T18:18:04.527Z,101320.84
2018-07-23T18:20:33.560Z,101320.45
2018-07-23T18:23:01.911Z,101322.66
2018-07-23T18:25:30.298Z,101325.73
2018-07-23T18:27:58.893Z,101322.81
2018-07-23T18:30:27.045Z,101325.83
2018-07-23T18:32:57.327Z,101319.78
2018-07-23T18:35:25.725Z,101322.15
2018-07-23T18:37:54.220Z,101319.37
2018-07-23T18:40:22.477Z,101317.41
2018-07-23T18:42:50.896Z,101321.67
2018-07-23T18:45:19.258Z,101323.94
2018-07-23T18:47:49.546Z,101325.21
2018-07-23T18:50:17.895Z,101322.86
2018-07-23T18:52:46.265Z,101325.84
2018-07-23T18:55:14.628Z,101328.29
2018-07-23T18:57:42.997Z,101331.30
2018-07-23T19:00:11.419Z,101338.13
2018-07-23T19:02:39.833Z,101335.91
2018-07-23T19:05:08.211Z,101346.16
2018-07-23T19:07:36.603Z,101344.39
2018-07-23T19:10:05.888Z,101346.41
2018-07-23T19:12:34.269Z,101348.40
2018-07-23T19:15:02.645Z,101349.88
2018-07-23T19:17:31.043Z,101350.61
2018-07-23T19:19:59.468Z,101354.86
2018-07-23T19:22:27.801Z,101356.53
2018-07-23T19:24:56.171Z,101355.19
2018-07-23T19:27:24.541Z,101362.77
2018-07-23T19:29:55.810Z,101366.17
2018-07-23T19:35:11.348Z,101365.04
2018-07-23T19:37:39.714Z,101366.63
2018-07-23T19:40:08.080Z,101370.69
2018-07-23T19:42:36.481Z,101372.00
2018-07-23T19:45:04.869Z,101373.16
2018-07-23T19:47:33.327Z,101375.87
2018-07-23T19:50:01.629Z,101377.41
2018-07-23T19:52:30.261Z,101377.68
2018-07-23T19:54:58.407Z,101376.99
2018-07-23T19:57:29.788Z,101377.84
2018-07-23T20:02:42.164Z,101374.56
2018-07-23T20:05:10.609Z,101379.80
2018-07-23T20:07:39.163Z,101380.66
2018-07-23T20:10:07.319Z,101381.22
2018-07-23T20:12:37.351Z,101379.87
2018-07-23T20:15:17.923Z,101384.03
2018-07-23T20:17:46.426Z,101387.38
2018-07-23T20:20:14.876Z,101380.58
2018-07-23T20:22:43.199Z,101378.53
2018-07-23T20:25:11.845Z,101378.12
2018-07-23T20:27:40.254Z,101378.20
2018-07-23T20:30:08.693Z,101381.09
2018-07-23T20:32:37.029Z,101379.75
2018-07-23T20:35:05.424Z,101382.30
2018-07-23T20:40:14.023Z,101379.61
2018-07-23T20:42:42.355Z,101383.04
2018-07-23T20:45:15.301Z,101378.89
2018-07-23T20:50:34.243Z,101386.16
2018-07-23T20:53:02.612Z,101386.90
2018-07-23T20:55:30.984Z,101382.07
2018-07-23T20:57:59.356Z,101385.56
2018-07-23T21:00:27.829Z,101383.78
2018-07-23T21:02:56.125Z,101383.69
2018-07-23T21:05:24.508Z,101380.36
2018-07-23T21:07:52.877Z,101380.73
2018-07-23T21:10:21.250Z,101380.77
2018-07-23T21:12:49.626Z,101385.73
2018-07-23T21:15:17.998Z,101386.70
2018-07-23T21:17:49.393Z,101387.23
2018-07-23T21:20:17.795Z,101381.08
2018-07-23T21:22:46.167Z,101383.16
2018-07-23T21:25:14.557Z,101383.69
2018-07-23T21:27:42.943Z,101385.29
2018-07-23T21:30:11.544Z,101382.78
2018-07-23T21:32:39.940Z,101380.48
2018-07-23T21:35:09.191Z,101374.33
2018-07-23T21:37:37.593Z,101376.17
2018-07-23T21:40:05.958Z,101379.37
2018-07-23T21:42:34.326Z,101377.73
2018-07-23T21:45:02.691Z,101376.94
2018-07-23T21:47:31.083Z,101373.73
2018-07-23T21:49:59.485Z,101370.25
2018-07-23T21:52:33.371Z,101373.02
2018-07-23T21:55:01.774Z,101379.51
2018-07-23T21:57:30.147Z,101376.16
2018-07-23T21:59:58.544Z,101380.13
2018-07-23T22:02:26.887Z,101380.41
2018-07-23T22:04:55.273Z,101379.97
2018-07-23T22:07:23.644Z,101380.13
2018-07-23T22:09:52.485Z,101379.84
2018-07-23T22:12:20.861Z,101378.92
2018-07-23T22:14:49.262Z,101380.13
2018-07-23T22:17:17.657Z,101382.77
2018-07-23T22:19:55.608Z,101367.19
2018-07-23T22:22:23.981Z,101370.78
2018-07-23T22:24:52.652Z,101368.89
2018-07-23T22:27:21.024Z,101367.06
2018-07-23T22:29:49.390Z,101372.70
2018-07-23T22:32:17.757Z,101371.42
2018-07-23T22:34:46.122Z,101367.92
2018-07-23T22:37:14.526Z,101368.44
2018-07-23T22:39:43.620Z,101367.70
2018-07-23T22:42:12.953Z,101368.77
2018-07-23T22:44:41.225Z,101368.69
2018-07-23T22:47:09.504Z,101366.70
2018-07-23T22:49:37.881Z,101362.20
2018-07-23T22:52:06.250Z,101362.49
2018-07-23T22:54:34.630Z,101358.11
2018-07-23T22:57:03.003Z,101357.91
2018-07-23T22:59:31.377Z,101354.12
2018-07-23T23:01:59.752Z,101354.06
2018-07-23T23:04:28.122Z,101355.12
2018-07-23T23:06:56.491Z,101351.87
2018-07-23T23:09:24.859Z,101350.05
2018-07-23T23:11:53.243Z,101351.17
2018-07-23T23:14:21.616Z,101348.48
2018-07-23T23:16:50.280Z,101351.22
2018-07-23T23:19:18.660Z,101351.97
2018-07-23T23:21:47.355Z,101348.38
2018-07-23T23:24:15.728Z,101349.91
2018-07-23T23:26:44.094Z,101347.24
2018-07-23T23:29:12.464Z,101349.24
2018-07-23T23:31:40.834Z,101350.36
2018-07-23T23:34:09.204Z,101351.64
2018-07-23T23:36:37.592Z,101356.95
2018-07-23T23:39:05.999Z,101354.05
2018-07-23T23:41:34.369Z,101352.97
2018-07-23T23:44:02.742Z,101356.72
2018-07-23T23:46:31.129Z,101359.25
2018-07-23T23:48:59.723Z,101354.69
2018-07-23T23:51:27.869Z,101350.20
2018-07-23T23:53:56.237Z,101351.27
2018-07-23T23:56:24.614Z,101354.37
2018-07-23T23:58:52.981Z,101352.73
